sensor_id;sensor_type;location;lat;lon;timestamp;temperature;humidity
41220;DHT22;26951;47.338;9.196;2023-05-23T00:00:14;14.00;65.60
41220;DHT22;26951;47.338;9.196;2023-05-23T00:02:58;14.00;66.00
41220;DHT22;26951;47.338;9.196;2023-05-23T00:05:43;14.00;65.20
41220;DHT22;26951;47.338;9.196;2023-05-23T00:08:30;14.00;64.20
41220;DHT22;26951;47.338;9.196;2023-05-23T00:11:15;14.00;64.70
41220;DHT22;26951;47.338;9.196;2023-05-23T00:13:59;14.00;65.00
41220;DHT22;26951;47.338;9.196;2023-05-23T00:16:45;14.00;65.60
41220;DHT22;26951;47.338;9.196;2023-05-23T00:19:32;14.00;65.40
41220;DHT22;26951;47.338;9.196;2023-05-23T00:22:19;14.00;65.80
41220;DHT22;26951;47.338;9.196;2023-05-23T00:25:03;14.00;65.30
41220;DHT22;26951;47.338;9.196;2023-05-23T00:27:47;14.00;65.00
41220;DHT22;26951;47.338;9.196;2023-05-23T00:30:32;14.00;64.90
41220;DHT22;26951;47.338;9.196;2023-05-23T00:33:17;14.00;64.40
41220;DHT22;26951;47.338;9.196;2023-05-23T00:36:05;14.00;63.80
41220;DHT22;26951;47.338;9.196;2023-05-23T00:38:49;14.00;64.70
41220;DHT22;26951;47.338;9.196;2023-05-23T00:41:33;13.90;64.90
41220;DHT22;26951;47.338;9.196;2023-05-23T00:44:19;13.90;65.60
41220;DHT22;26951;47.338;9.196;2023-05-23T00:47:06;13.90;65.90
41220;DHT22;26951;47.338;9.196;2023-05-23T00:49:50;13.90;66.60
41220;DHT22;26951;47.338;9.196;2023-05-23T00:52:35;13.90;66.70
41220;DHT22;26951;47.338;9.196;2023-05-23T00:55:19;13.90;66.10
41220;DHT22;26951;47.338;9.196;2023-05-23T00:58:03;13.90;66.20
41220;DHT22;26951;47.338;9.196;2023-05-23T01:04:30;13.80;67.10
41220;DHT22;26951;47.338;9.196;2023-05-23T01:07:16;13.80;67.80
41220;DHT22;26951;47.338;9.196;2023-05-23T01:10:02;13.90;68.50
41220;DHT22;26951;47.338;9.196;2023-05-23T01:13:02;13.90;68.20
41220;DHT22;26951;47.338;9.196;2023-05-23T01:16:05;13.90;67.70
41220;DHT22;26951;47.338;9.196;2023-05-23T01:19:16;13.90;67.60
41220;DHT22;26951;47.338;9.196;2023-05-23T01:22:30;13.90;67.90
41220;DHT22;26951;47.338;9.196;2023-05-23T01:28:46;13.90;68.20
41220;DHT22;26951;47.338;9.196;2023-05-23T01:31:33;13.80;67.80
41220;DHT22;26951;47.338;9.196;2023-05-23T01:34:18;13.90;68.60
41220;DHT22;26951;47.338;9.196;2023-05-23T01:37:08;13.90;70.00
41220;DHT22;26951;47.338;9.196;2023-05-23T01:39:53;13.90;69.80
41220;DHT22;26951;47.338;9.196;2023-05-23T01:42:37;13.90;69.20
41220;DHT22;26951;47.338;9.196;2023-05-23T01:45:24;13.90;69.80
41220;DHT22;26951;47.338;9.196;2023-05-23T01:48:11;13.90;70.10
41220;DHT22;26951;47.338;9.196;2023-05-23T01:50:56;13.90;70.40
41220;DHT22;26951;47.338;9.196;2023-05-23T01:53:40;13.90;70.50
41220;DHT22;26951;47.338;9.196;2023-05-23T01:56:26;14.00;71.20
41220;DHT22;26951;47.338;9.196;2023-05-23T01:59:11;13.90;71.40
41220;DHT22;26951;47.338;9.196;2023-05-23T02:01:55;14.00;71.50
41220;DHT22;26951;47.338;9.196;2023-05-23T02:04:39;14.00;71.10
41220;DHT22;26951;47.338;9.196;2023-05-23T02:07:23;14.10;70.30
41220;DHT22;26951;47.338;9.196;2023-05-23T02:10:08;14.10;70.70
41220;DHT22;26951;47.338;9.196;2023-05-23T02:12:52;14.10;70.70
41220;DHT22;26951;47.338;9.196;2023-05-23T02:15:36;14.00;69.70
41220;DHT22;26951;47.338;9.196;2023-05-23T02:18:21;14.00;70.70
41220;DHT22;26951;47.338;9.196;2023-05-23T02:21:05;14.00;71.60
41220;DHT22;26951;47.338;9.196;2023-05-23T02:23:49;14.00;71.10
41220;DHT22;26951;47.338;9.196;2023-05-23T02:26:33;14.00;70.50
41220;DHT22;26951;47.338;9.196;2023-05-23T02:29:17;14.00;70.30
41220;DHT22;26951;47.338;9.196;2023-05-23T02:32:02;14.00;70.70
41220;DHT22;26951;47.338;9.196;2023-05-23T02:34:46;14.00;70.30
41220;DHT22;26951;47.338;9.196;2023-05-23T02:37:33;14.00;69.10
41220;DHT22;26951;47.338;9.196;2023-05-23T02:40:17;13.90;69.40
41220;DHT22;26951;47.338;9.196;2023-05-23T02:43:01;13.80;71.50
41220;DHT22;26951;47.338;9.196;2023-05-23T02:45:46;13.70;72.20
41220;DHT22;26951;47.338;9.196;2023-05-23T02:48:30;13.70;71.50
41220;DHT22;26951;47.338;9.196;2023-05-23T02:51:14;13.80;71.10
41220;DHT22;26951;47.338;9.196;2023-05-23T02:53:59;13.80;70.10
41220;DHT22;26951;47.338;9.196;2023-05-23T02:56:44;13.80;68.90
41220;DHT22;26951;47.338;9.196;2023-05-23T02:59:28;13.80;68.00
41220;DHT22;26951;47.338;9.196;2023-05-23T03:02:12;13.80;68.10
41220;DHT22;26951;47.338;9.196;2023-05-23T03:04:56;13.80;68.90
41220;DHT22;26951;47.338;9.196;2023-05-23T03:07:40;13.70;68.60
41220;DHT22;26951;47.338;9.196;2023-05-23T03:10:25;13.70;68.30
41220;DHT22;26951;47.338;9.196;2023-05-23T03:13:09;13.60;68.80
41220;DHT22;26951;47.338;9.196;2023-05-23T03:15:53;13.70;69.40
41220;DHT22;26951;47.338;9.196;2023-05-23T03:18:37;13.60;69.20
41220;DHT22;26951;47.338;9.196;2023-05-23T03:21:21;13.60;69.30
41220;DHT22;26951;47.338;9.196;2023-05-23T03:24:06;13.60;68.70
41220;DHT22;26951;47.338;9.196;2023-05-23T03:26:50;13.60;68.80
41220;DHT22;26951;47.338;9.196;2023-05-23T03:29:34;13.60;69.80
41220;DHT22;26951;47.338;9.196;2023-05-23T03:32:18;13.60;70.10
41220;DHT22;26951;47.338;9.196;2023-05-23T03:35:02;13.60;70.20
41220;DHT22;26951;47.338;9.196;2023-05-23T03:37:46;13.60;70.80
41220;DHT22;26951;47.338;9.196;2023-05-23T03:40:31;13.60;71.70
41220;DHT22;26951;47.338;9.196;2023-05-23T03:43:15;13.60;71.90
41220;DHT22;26951;47.338;9.196;2023-05-23T03:45:59;13.60;70.80
41220;DHT22;26951;47.338;9.196;2023-05-23T03:48:43;13.60;71.20
41220;DHT22;26951;47.338;9.196;2023-05-23T03:51:28;13.70;71.60
41220;DHT22;26951;47.338;9.196;2023-05-23T03:54:12;13.60;71.60
41220;DHT22;26951;47.338;9.196;2023-05-23T03:56:56;13.60;72.10
41220;DHT22;26951;47.338;9.196;2023-05-23T03:59:40;13.70;72.60
41220;DHT22;26951;47.338;9.196;2023-05-23T04:02:24;13.70;72.80
41220;DHT22;26951;47.338;9.196;2023-05-23T04:05:08;13.70;73.00
41220;DHT22;26951;47.338;9.196;2023-05-23T04:07:53;13.70;73.30
41220;DHT22;26951;47.338;9.196;2023-05-23T04:10:37;13.80;74.00
41220;DHT22;26951;47.338;9.196;2023-05-23T04:13:21;13.80;74.60
41220;DHT22;26951;47.338;9.196;2023-05-23T04:16:07;13.80;74.60
41220;DHT22;26951;47.338;9.196;2023-05-23T04:18:51;13.80;74.60
41220;DHT22;26951;47.338;9.196;2023-05-23T04:21:37;13.80;74.30
41220;DHT22;26951;47.338;9.196;2023-05-23T04:24:21;13.90;74.30
41220;DHT22;26951;47.338;9.196;2023-05-23T04:27:05;13.90;75.00
41220;DHT22;26951;47.338;9.196;2023-05-23T04:29:50;13.90;75.80
41220;DHT22;26951;47.338;9.196;2023-05-23T04:32:35;14.00;76.30
41220;DHT22;26951;47.338;9.196;2023-05-23T04:35:19;14.00;76.00
41220;DHT22;26951;47.338;9.196;2023-05-23T04:38:04;14.10;75.90
41220;DHT22;26951;47.338;9.196;2023-05-23T04:40:48;14.10;75.80
41220;DHT22;26951;47.338;9.196;2023-05-23T04:43:34;14.20;76.40
41220;DHT22;26951;47.338;9.196;2023-05-23T04:46:20;14.30;76.20
41220;DHT22;26951;47.338;9.196;2023-05-23T04:49:10;14.30;75.90
41220;DHT22;26951;47.338;9.196;2023-05-23T04:51:56;14.40;76.80
41220;DHT22;26951;47.338;9.196;2023-05-23T04:54:39;14.50;77.50
41220;DHT22;26951;47.338;9.196;2023-05-23T04:57:27;14.60;77.40
41220;DHT22;26951;47.338;9.196;2023-05-23T05:00:12;14.70;77.20
41220;DHT22;26951;47.338;9.196;2023-05-23T05:02:57;14.80;78.00
41220;DHT22;26951;47.338;9.196;2023-05-23T05:05:41;14.90;79.30
41220;DHT22;26951;47.338;9.196;2023-05-23T05:08:26;15.00;79.10
41220;DHT22;26951;47.338;9.196;2023-05-23T05:11:10;15.10;78.80
41220;DHT22;26951;47.338;9.196;2023-05-23T05:13:54;15.20;79.10
41220;DHT22;26951;47.338;9.196;2023-05-23T05:16:38;15.30;78.40
41220;DHT22;26951;47.338;9.196;2023-05-23T05:19:22;15.40;77.90
41220;DHT22;26951;47.338;9.196;2023-05-23T05:22:07;15.50;75.60
41220;DHT22;26951;47.338;9.196;2023-05-23T05:24:51;15.60;75.20
41220;DHT22;26951;47.338;9.196;2023-05-23T05:27:36;15.70;74.80
41220;DHT22;26951;47.338;9.196;2023-05-23T05:30:23;15.70;73.50
41220;DHT22;26951;47.338;9.196;2023-05-23T05:33:07;15.70;72.20
41220;DHT22;26951;47.338;9.196;2023-05-23T05:35:51;15.80;71.70
41220;DHT22;26951;47.338;9.196;2023-05-23T05:38:36;15.80;71.20
41220;DHT22;26951;47.338;9.196;2023-05-23T05:41:20;15.80;71.30
41220;DHT22;26951;47.338;9.196;2023-05-23T05:44:06;15.80;71.40
41220;DHT22;26951;47.338;9.196;2023-05-23T05:46:50;15.80;71.20
41220;DHT22;26951;47.338;9.196;2023-05-23T05:49:34;15.80;70.90
41220;DHT22;26951;47.338;9.196;2023-05-23T05:52:19;15.80;72.70
41220;DHT22;26951;47.338;9.196;2023-05-23T05:55:03;15.80;73.70
41220;DHT22;26951;47.338;9.196;2023-05-23T05:57:49;15.90;73.10
41220;DHT22;26951;47.338;9.196;2023-05-23T06:00:34;15.90;73.30
41220;DHT22;26951;47.338;9.196;2023-05-23T06:03:24;15.90;73.40
41220;DHT22;26951;47.338;9.196;2023-05-23T06:06:09;15.90;72.70
41220;DHT22;26951;47.338;9.196;2023-05-23T06:08:53;15.90;73.30
41220;DHT22;26951;47.338;9.196;2023-05-23T06:11:37;16.00;73.50
41220;DHT22;26951;47.338;9.196;2023-05-23T06:14:23;16.00;72.80
41220;DHT22;26951;47.338;9.196;2023-05-23T06:17:07;16.00;72.90
41220;DHT22;26951;47.338;9.196;2023-05-23T06:19:52;16.10;73.80
41220;DHT22;26951;47.338;9.196;2023-05-23T06:22:36;16.10;72.90
41220;DHT22;26951;47.338;9.196;2023-05-23T06:25:20;16.10;72.80
41220;DHT22;26951;47.338;9.196;2023-05-23T06:28:04;16.20;72.10
41220;DHT22;26951;47.338;9.196;2023-05-23T06:30:49;16.20;71.30
41220;DHT22;26951;47.338;9.196;2023-05-23T06:33:33;16.20;70.80
41220;DHT22;26951;47.338;9.196;2023-05-23T06:36:17;16.30;70.80
41220;DHT22;26951;47.338;9.196;2023-05-23T06:39:01;16.30;70.30
41220;DHT22;26951;47.338;9.196;2023-05-23T06:41:46;16.30;70.10
41220;DHT22;26951;47.338;9.196;2023-05-23T06:44:30;16.40;68.00
41220;DHT22;26951;47.338;9.196;2023-05-23T06:47:14;16.40;67.40
41220;DHT22;26951;47.338;9.196;2023-05-23T06:49:58;16.50;66.40
41220;DHT22;26951;47.338;9.196;2023-05-23T06:52:42;16.50;66.10
41220;DHT22;26951;47.338;9.196;2023-05-23T06:55:27;16.50;66.30
41220;DHT22;26951;47.338;9.196;2023-05-23T06:58:11;16.60;66.30
41220;DHT22;26951;47.338;9.196;2023-05-23T07:00:55;16.70;67.30
41220;DHT22;26951;47.338;9.196;2023-05-23T07:03:39;16.80;66.80
41220;DHT22;26951;47.338;9.196;2023-05-23T07:06:24;16.90;67.20
41220;DHT22;26951;47.338;9.196;2023-05-23T07:09:10;16.90;68.00
41220;DHT22;26951;47.338;9.196;2023-05-23T07:11:55;16.90;67.70
41220;DHT22;26951;47.338;9.196;2023-05-23T07:14:40;16.90;67.50
41220;DHT22;26951;47.338;9.196;2023-05-23T07:17:24;16.90;68.10
41220;DHT22;26951;47.338;9.196;2023-05-23T07:20:09;16.90;68.40
41220;DHT22;26951;47.338;9.196;2023-05-23T07:22:53;16.90;68.40
41220;DHT22;26951;47.338;9.196;2023-05-23T07:25:37;16.90;67.70
41220;DHT22;26951;47.338;9.196;2023-05-23T07:28:23;16.90;68.00
41220;DHT22;26951;47.338;9.196;2023-05-23T07:31:07;16.80;67.40
41220;DHT22;26951;47.338;9.196;2023-05-23T07:33:52;16.80;67.70
41220;DHT22;26951;47.338;9.196;2023-05-23T07:36:37;16.80;67.90
41220;DHT22;26951;47.338;9.196;2023-05-23T07:39:24;16.80;68.30
41220;DHT22;26951;47.338;9.196;2023-05-23T07:42:08;16.80;68.20
41220;DHT22;26951;47.338;9.196;2023-05-23T07:44:52;16.80;67.70
41220;DHT22;26951;47.338;9.196;2023-05-23T07:47:37;16.90;68.80
41220;DHT22;26951;47.338;9.196;2023-05-23T07:50:21;16.90;69.00
41220;DHT22;26951;47.338;9.196;2023-05-23T07:53:05;17.00;69.70
41220;DHT22;26951;47.338;9.196;2023-05-23T07:55:49;17.10;69.70
41220;DHT22;26951;47.338;9.196;2023-05-23T07:58:33;17.10;68.40
41220;DHT22;26951;47.338;9.196;2023-05-23T08:01:17;17.30;69.10
41220;DHT22;26951;47.338;9.196;2023-05-23T08:04:02;17.40;68.50
41220;DHT22;26951;47.338;9.196;2023-05-23T08:06:47;17.40;67.10
41220;DHT22;26951;47.338;9.196;2023-05-23T08:09:31;17.50;66.50
41220;DHT22;26951;47.338;9.196;2023-05-23T08:12:15;17.50;65.20
41220;DHT22;26951;47.338;9.196;2023-05-23T08:14:59;17.50;65.30
41220;DHT22;26951;47.338;9.196;2023-05-23T08:17:43;17.60;66.60
41220;DHT22;26951;47.338;9.196;2023-05-23T08:20:28;17.70;64.70
41220;DHT22;26951;47.338;9.196;2023-05-23T08:23:15;17.70;64.70
41220;DHT22;26951;47.338;9.196;2023-05-23T08:26:01;17.80;65.50
41220;DHT22;26951;47.338;9.196;2023-05-23T08:28:45;17.80;65.10
41220;DHT22;26951;47.338;9.196;2023-05-23T08:31:30;17.90;65.50
41220;DHT22;26951;47.338;9.196;2023-05-23T08:34:15;18.00;65.80
41220;DHT22;26951;47.338;9.196;2023-05-23T08:36:59;18.20;65.70
41220;DHT22;26951;47.338;9.196;2023-05-23T08:39:43;18.20;64.90
41220;DHT22;26951;47.338;9.196;2023-05-23T08:42:28;18.40;63.40
41220;DHT22;26951;47.338;9.196;2023-05-23T08:45:12;18.50;64.00
41220;DHT22;26951;47.338;9.196;2023-05-23T08:47:59;18.60;64.70
41220;DHT22;26951;47.338;9.196;2023-05-23T08:50:46;18.70;63.80
41220;DHT22;26951;47.338;9.196;2023-05-23T08:53:31;18.80;62.50
41220;DHT22;26951;47.338;9.196;2023-05-23T08:56:16;18.90;63.00
41220;DHT22;26951;47.338;9.196;2023-05-23T08:59:01;19.00;62.90
41220;DHT22;26951;47.338;9.196;2023-05-23T09:01:47;19.10;61.90
41220;DHT22;26951;47.338;9.196;2023-05-23T09:04:31;19.10;61.20
41220;DHT22;26951;47.338;9.196;2023-05-23T09:07:18;19.10;60.90
41220;DHT22;26951;47.338;9.196;2023-05-23T09:10:06;19.10;59.70
41220;DHT22;26951;47.338;9.196;2023-05-23T09:12:51;19.20;58.40
41220;DHT22;26951;47.338;9.196;2023-05-23T09:15:35;19.20;57.30
41220;DHT22;26951;47.338;9.196;2023-05-23T09:18:20;19.30;58.30
41220;DHT22;26951;47.338;9.196;2023-05-23T09:21:05;19.30;58.50
41220;DHT22;26951;47.338;9.196;2023-05-23T09:23:51;19.20;56.70
41220;DHT22;26951;47.338;9.196;2023-05-23T09:26:35;19.20;56.40
41220;DHT22;26951;47.338;9.196;2023-05-23T09:29:20;19.20;57.70
41220;DHT22;26951;47.338;9.196;2023-05-23T09:32:12;19.20;57.40
41220;DHT22;26951;47.338;9.196;2023-05-23T09:35:01;19.10;59.00
41220;DHT22;26951;47.338;9.196;2023-05-23T09:37:47;19.20;57.90
41220;DHT22;26951;47.338;9.196;2023-05-23T09:40:31;19.20;58.30
41220;DHT22;26951;47.338;9.196;2023-05-23T09:43:16;19.10;57.20
41220;DHT22;26951;47.338;9.196;2023-05-23T09:46:09;19.00;56.60
41220;DHT22;26951;47.338;9.196;2023-05-23T09:48:53;18.90;57.30
41220;DHT22;26951;47.338;9.196;2023-05-23T09:51:38;18.80;57.70
41220;DHT22;26951;47.338;9.196;2023-05-23T09:54:23;18.60;56.40
41220;DHT22;26951;47.338;9.196;2023-05-23T09:57:09;18.50;56.10
41220;DHT22;26951;47.338;9.196;2023-05-23T09:59:56;18.40;56.40
41220;DHT22;26951;47.338;9.196;2023-05-23T10:05:49;18.30;57.30
41220;DHT22;26951;47.338;9.196;2023-05-23T10:08:42;18.30;57.30
41220;DHT22;26951;47.338;9.196;2023-05-23T10:14:17;18.30;59.40
41220;DHT22;26951;47.338;9.196;2023-05-23T10:17:17;18.40;60.00
41220;DHT22;26951;47.338;9.196;2023-05-23T10:20:10;18.40;60.10
41220;DHT22;26951;47.338;9.196;2023-05-23T10:22:55;18.40;58.40
41220;DHT22;26951;47.338;9.196;2023-05-23T10:25:41;18.30;57.30
41220;DHT22;26951;47.338;9.196;2023-05-23T10:28:26;18.30;58.30
41220;DHT22;26951;47.338;9.196;2023-05-23T10:31:11;18.30;58.20
41220;DHT22;26951;47.338;9.196;2023-05-23T10:34:08;18.30;57.00
41220;DHT22;26951;47.338;9.196;2023-05-23T10:37:06;18.40;57.00
41220;DHT22;26951;47.338;9.196;2023-05-23T10:40:09;18.30;56.70
41220;DHT22;26951;47.338;9.196;2023-05-23T10:45:46;18.40;60.10
41220;DHT22;26951;47.338;9.196;2023-05-23T10:48:34;18.60;57.80
41220;DHT22;26951;47.338;9.196;2023-05-23T10:51:23;18.80;58.60
41220;DHT22;26951;47.338;9.196;2023-05-23T10:54:11;19.00;58.40
41220;DHT22;26951;47.338;9.196;2023-05-23T10:57:02;19.10;59.30
41220;DHT22;26951;47.338;9.196;2023-05-23T10:59:50;19.20;59.00
41220;DHT22;26951;47.338;9.196;2023-05-23T11:02:34;19.30;58.10
41220;DHT22;26951;47.338;9.196;2023-05-23T11:05:27;19.40;58.30
41220;DHT22;26951;47.338;9.196;2023-05-23T11:08:14;19.60;58.10
41220;DHT22;26951;47.338;9.196;2023-05-23T11:11:02;19.70;58.70
41220;DHT22;26951;47.338;9.196;2023-05-23T11:13:54;19.80;58.20
41220;DHT22;26951;47.338;9.196;2023-05-23T11:16:40;19.90;58.10
41220;DHT22;26951;47.338;9.196;2023-05-23T11:19:27;19.90;57.40
41220;DHT22;26951;47.338;9.196;2023-05-23T11:22:12;20.00;57.30
41220;DHT22;26951;47.338;9.196;2023-05-23T11:24:57;20.10;57.80
41220;DHT22;26951;47.338;9.196;2023-05-23T11:27:45;20.20;57.90
41220;DHT22;26951;47.338;9.196;2023-05-23T11:30:29;20.40;58.20
41220;DHT22;26951;47.338;9.196;2023-05-23T11:33:14;20.50;55.60
41220;DHT22;26951;47.338;9.196;2023-05-23T11:35:59;20.70;55.60
41220;DHT22;26951;47.338;9.196;2023-05-23T11:38:43;20.80;57.00
41220;DHT22;26951;47.338;9.196;2023-05-23T11:41:29;21.00;57.20
41220;DHT22;26951;47.338;9.196;2023-05-23T11:44:13;21.20;56.90
41220;DHT22;26951;47.338;9.196;2023-05-23T11:47:02;21.40;56.50
41220;DHT22;26951;47.338;9.196;2023-05-23T11:49:46;21.40;51.70
41220;DHT22;26951;47.338;9.196;2023-05-23T11:52:31;21.60;55.20
41220;DHT22;26951;47.338;9.196;2023-05-23T11:55:16;21.70;50.90
41220;DHT22;26951;47.338;9.196;2023-05-23T11:58:01;21.70;51.50
41220;DHT22;26951;47.338;9.196;2023-05-23T12:00:45;21.70;51.20
41220;DHT22;26951;47.338;9.196;2023-05-23T12:03:30;21.80;51.70
41220;DHT22;26951;47.338;9.196;2023-05-23T12:06:15;21.70;52.20
41220;DHT22;26951;47.338;9.196;2023-05-23T12:08:59;21.70;52.90
41220;DHT22;26951;47.338;9.196;2023-05-23T12:11:44;21.80;52.70
41220;DHT22;26951;47.338;9.196;2023-05-23T12:14:33;21.80;49.90
41220;DHT22;26951;47.338;9.196;2023-05-23T12:17:17;21.80;51.70
41220;DHT22;26951;47.338;9.196;2023-05-23T12:20:01;21.80;51.50
41220;DHT22;26951;47.338;9.196;2023-05-23T12:22:47;21.80;51.50
41220;DHT22;26951;47.338;9.196;2023-05-23T12:25:39;21.90;54.80
41220;DHT22;26951;47.338;9.196;2023-05-23T12:28:38;21.80;53.80
41220;DHT22;26951;47.338;9.196;2023-05-23T12:31:24;21.80;55.30
41220;DHT22;26951;47.338;9.196;2023-05-23T12:34:10;22.00;52.20
41220;DHT22;26951;47.338;9.196;2023-05-23T12:36:56;22.10;51.00
41220;DHT22;26951;47.338;9.196;2023-05-23T12:39:42;22.30;50.10
41220;DHT22;26951;47.338;9.196;2023-05-23T12:42:28;22.50;52.00
41220;DHT22;26951;47.338;9.196;2023-05-23T12:45:15;22.60;51.80
41220;DHT22;26951;47.338;9.196;2023-05-23T12:48:00;22.60;50.80
41220;DHT22;26951;47.338;9.196;2023-05-23T12:50:44;22.60;49.60
41220;DHT22;26951;47.338;9.196;2023-05-23T12:53:28;22.30;49.00
41220;DHT22;26951;47.338;9.196;2023-05-23T12:56:12;22.10;48.50
41220;DHT22;26951;47.338;9.196;2023-05-23T12:58:57;21.90;48.00
41220;DHT22;26951;47.338;9.196;2023-05-23T13:01:41;21.70;48.90
41220;DHT22;26951;47.338;9.196;2023-05-23T13:04:25;21.60;48.40
41220;DHT22;26951;47.338;9.196;2023-05-23T13:07:10;21.50;48.90
41220;DHT22;26951;47.338;9.196;2023-05-23T13:09:54;21.40;49.10
41220;DHT22;26951;47.338;9.196;2023-05-23T13:12:38;21.30;49.60
41220;DHT22;26951;47.338;9.196;2023-05-23T13:15:22;21.10;50.30
41220;DHT22;26951;47.338;9.196;2023-05-23T13:18:06;21.00;50.40
41220;DHT22;26951;47.338;9.196;2023-05-23T13:20:50;20.90;51.30
41220;DHT22;26951;47.338;9.196;2023-05-23T13:23:35;20.80;51.40
41220;DHT22;26951;47.338;9.196;2023-05-23T13:26:21;20.80;52.10
41220;DHT22;26951;47.338;9.196;2023-05-23T13:29:06;20.80;52.20
41220;DHT22;26951;47.338;9.196;2023-05-23T13:31:50;20.80;52.60
41220;DHT22;26951;47.338;9.196;2023-05-23T13:34:35;20.80;51.90
41220;DHT22;26951;47.338;9.196;2023-05-23T13:37:20;20.60;51.80
41220;DHT22;26951;47.338;9.196;2023-05-23T13:40:05;20.50;51.20
41220;DHT22;26951;47.338;9.196;2023-05-23T13:42:50;20.40;51.80
41220;DHT22;26951;47.338;9.196;2023-05-23T13:45:34;20.20;51.80
41220;DHT22;26951;47.338;9.196;2023-05-23T13:48:18;20.20;52.00
41220;DHT22;26951;47.338;9.196;2023-05-23T13:51:03;20.00;51.70
41220;DHT22;26951;47.338;9.196;2023-05-23T13:53:47;19.80;53.90
41220;DHT22;26951;47.338;9.196;2023-05-23T13:56:31;19.50;54.60
41220;DHT22;26951;47.338;9.196;2023-05-23T13:59:15;19.30;58.80
41220;DHT22;26951;47.338;9.196;2023-05-23T14:02:05;19.00;60.40
41220;DHT22;26951;47.338;9.196;2023-05-23T14:04:50;18.70;62.80
41220;DHT22;26951;47.338;9.196;2023-05-23T14:07:35;18.30;64.90
41220;DHT22;26951;47.338;9.196;2023-05-23T14:10:20;18.20;66.60
41220;DHT22;26951;47.338;9.196;2023-05-23T14:13:07;17.80;63.70
41220;DHT22;26951;47.338;9.196;2023-05-23T14:15:51;17.60;62.80
41220;DHT22;26951;47.338;9.196;2023-05-23T14:18:36;17.50;64.10
41220;DHT22;26951;47.338;9.196;2023-05-23T14:21:21;17.40;63.30
41220;DHT22;26951;47.338;9.196;2023-05-23T14:24:05;17.30;64.20
41220;DHT22;26951;47.338;9.196;2023-05-23T14:26:50;17.20;64.30
41220;DHT22;26951;47.338;9.196;2023-05-23T14:29:34;17.20;65.20
41220;DHT22;26951;47.338;9.196;2023-05-23T14:32:18;17.20;65.30
41220;DHT22;26951;47.338;9.196;2023-05-23T14:35:04;17.10;65.50
41220;DHT22;26951;47.338;9.196;2023-05-23T14:37:48;17.10;66.20
41220;DHT22;26951;47.338;9.196;2023-05-23T14:40:32;17.10;67.60
41220;DHT22;26951;47.338;9.196;2023-05-23T14:43:17;17.10;66.90
41220;DHT22;26951;47.338;9.196;2023-05-23T14:46:01;17.00;66.20
41220;DHT22;26951;47.338;9.196;2023-05-23T14:48:45;17.00;66.60
41220;DHT22;26951;47.338;9.196;2023-05-23T14:51:29;17.00;67.30
41220;DHT22;26951;47.338;9.196;2023-05-23T14:54:13;17.00;68.60
41220;DHT22;26951;47.338;9.196;2023-05-23T14:56:58;16.90;69.20
41220;DHT22;26951;47.338;9.196;2023-05-23T14:59:42;16.80;72.20
41220;DHT22;26951;47.338;9.196;2023-05-23T15:02:27;16.90;76.10
41220;DHT22;26951;47.338;9.196;2023-05-23T15:05:11;16.80;76.00
41220;DHT22;26951;47.338;9.196;2023-05-23T15:07:55;16.80;74.00
41220;DHT22;26951;47.338;9.196;2023-05-23T15:10:40;16.80;74.10
41220;DHT22;26951;47.338;9.196;2023-05-23T15:13:25;16.80;77.10
41220;DHT22;26951;47.338;9.196;2023-05-23T15:16:09;16.80;77.00
41220;DHT22;26951;47.338;9.196;2023-05-23T15:18:54;16.80;76.60
41220;DHT22;26951;47.338;9.196;2023-05-23T15:21:39;16.70;76.60
41220;DHT22;26951;47.338;9.196;2023-05-23T15:24:23;16.70;77.40
41220;DHT22;26951;47.338;9.196;2023-05-23T15:27:07;16.70;77.30
41220;DHT22;26951;47.338;9.196;2023-05-23T15:29:51;16.60;78.00
41220;DHT22;26951;47.338;9.196;2023-05-23T15:32:35;16.60;78.30
41220;DHT22;26951;47.338;9.196;2023-05-23T15:35:20;16.60;78.70
41220;DHT22;26951;47.338;9.196;2023-05-23T15:38:04;16.50;78.20
41220;DHT22;26951;47.338;9.196;2023-05-23T15:40:48;16.50;78.20
41220;DHT22;26951;47.338;9.196;2023-05-23T15:43:35;16.50;77.70
41220;DHT22;26951;47.338;9.196;2023-05-23T15:46:19;16.50;78.10
41220;DHT22;26951;47.338;9.196;2023-05-23T15:49:03;16.60;75.60
41220;DHT22;26951;47.338;9.196;2023-05-23T15:51:47;16.60;74.40
41220;DHT22;26951;47.338;9.196;2023-05-23T15:54:31;16.70;74.30
41220;DHT22;26951;47.338;9.196;2023-05-23T15:57:15;16.70;75.60
41220;DHT22;26951;47.338;9.196;2023-05-23T16:00:00;16.80;76.10
41220;DHT22;26951;47.338;9.196;2023-05-23T16:02:44;16.90;75.70
41220;DHT22;26951;47.338;9.196;2023-05-23T16:05:28;17.00;75.20
41220;DHT22;26951;47.338;9.196;2023-05-23T16:08:12;17.10;75.30
41220;DHT22;26951;47.338;9.196;2023-05-23T16:10:56;17.10;76.20
41220;DHT22;26951;47.338;9.196;2023-05-23T16:13:41;17.10;75.10
41220;DHT22;26951;47.338;9.196;2023-05-23T16:16:25;17.10;75.60
41220;DHT22;26951;47.338;9.196;2023-05-23T16:19:09;17.10;75.50
41220;DHT22;26951;47.338;9.196;2023-05-23T16:21:53;17.10;76.80
41220;DHT22;26951;47.338;9.196;2023-05-23T16:24:38;17.10;76.70
41220;DHT22;26951;47.338;9.196;2023-05-23T16:27:22;17.30;77.30
41220;DHT22;26951;47.338;9.196;2023-05-23T16:30:07;17.30;81.00
41220;DHT22;26951;47.338;9.196;2023-05-23T16:32:53;17.40;81.20
41220;DHT22;26951;47.338;9.196;2023-05-23T16:35:38;17.40;81.40
41220;DHT22;26951;47.338;9.196;2023-05-23T16:38:22;17.50;80.50
41220;DHT22;26951;47.338;9.196;2023-05-23T16:41:07;17.50;79.20
41220;DHT22;26951;47.338;9.196;2023-05-23T16:43:51;17.50;78.80
41220;DHT22;26951;47.338;9.196;2023-05-23T16:46:35;17.60;80.00
41220;DHT22;26951;47.338;9.196;2023-05-23T16:49:19;17.60;78.00
41220;DHT22;26951;47.338;9.196;2023-05-23T16:52:04;17.60;76.30
41220;DHT22;26951;47.338;9.196;2023-05-23T16:54:48;17.70;76.30
41220;DHT22;26951;47.338;9.196;2023-05-23T16:57:32;17.80;74.90
41220;DHT22;26951;47.338;9.196;2023-05-23T17:00:17;17.90;73.50
41220;DHT22;26951;47.338;9.196;2023-05-23T17:03:04;18.00;73.70
41220;DHT22;26951;47.338;9.196;2023-05-23T17:05:48;18.10;73.30
41220;DHT22;26951;47.338;9.196;2023-05-23T17:08:33;18.20;71.70
41220;DHT22;26951;47.338;9.196;2023-05-23T17:11:17;18.20;70.60
41220;DHT22;26951;47.338;9.196;2023-05-23T17:14:01;18.30;70.00
41220;DHT22;26951;47.338;9.196;2023-05-23T17:16:45;18.30;67.00
41220;DHT22;26951;47.338;9.196;2023-05-23T17:19:29;18.30;67.50
41220;DHT22;26951;47.338;9.196;2023-05-23T17:22:14;18.30;66.70
41220;DHT22;26951;47.338;9.196;2023-05-23T17:24:58;18.30;66.90
41220;DHT22;26951;47.338;9.196;2023-05-23T17:27:44;18.20;67.80
41220;DHT22;26951;47.338;9.196;2023-05-23T17:30:29;18.10;65.90
41220;DHT22;26951;47.338;9.196;2023-05-23T17:33:12;18.10;66.40
41220;DHT22;26951;47.338;9.196;2023-05-23T17:35:57;18.10;65.90
41220;DHT22;26951;47.338;9.196;2023-05-23T17:38:41;18.00;64.20